Time;durP1;ratioP1;P1;durP2;ratioP2;P2;SDS_P1;SDS_P2;PMS_P1;PMS_P2;Temp;Humidity;BMP_temperature;BMP_pressure;BME280_temperature;BME280_humidity;BME280_pressure;Samples;Min_cycle;Max_cycle;Signal;HPM_P1;HPM_P2
2022/07/27 00:02:05;;;;;;;2.67;0.60;;;;;;;17.18;65.49;101151.31;5075145;28;20477;-72
2022/07/27 00:04:31;;;;;;;3.93;1.07;;;;;;;17.13;66.17;101139.44;5075418;28;20875;-72
2022/07/27 00:06:58;;;;;;;2.60;0.67;;;;;;;17.06;65.90;101143.81;5075405;28;20525;-72
2022/07/27 00:09:25;;;;;;;2.20;0.60;;;;;;;17.08;68.95;101152.50;5074788;28;20878;-72
2022/07/27 00:11:53;;;;;;;2.73;0.80;;;;;;;17.06;69.34;101147.38;5076188;28;20876;-73
2022/07/27 00:14:19;;;;;;;5.37;0.73;;;;;;;16.96;70.44;101155.16;5074839;28;20532;-72
2022/07/27 00:16:46;;;;;;;2.70;0.80;;;;;;;16.92;70.32;101159.69;5075178;28;20532;-71
2022/07/27 00:19:12;;;;;;;8.03;0.90;;;;;;;16.85;70.00;101155.50;5075202;28;20525;-71
2022/07/27 00:21:39;;;;;;;4.90;0.77;;;;;;;16.77;71.89;101150.88;5074519;28;20901;-70
2022/07/27 00:24:06;;;;;;;2.80;0.90;;;;;;;16.72;72.08;101158.44;5075022;28;20469;-70
2022/07/27 00:26:33;;;;;;;2.00;0.60;;;;;;;16.67;72.98;101159.44;5074844;28;20527;-70
2022/07/27 00:29:01;;;;;;;4.00;1.13;;;;;;;16.56;74.00;101161.72;5074862;28;20477;-70
2022/07/27 00:31:27;;;;;;;2.57;0.70;;;;;;;16.58;74.97;101153.19;5074655;28;20548;-69
2022/07/27 00:33:54;;;;;;;2.97;0.90;;;;;;;16.52;74.63;101149.03;5074677;28;20441;-69
2022/07/27 00:36:20;;;;;;;2.23;0.60;;;;;;;16.45;74.97;101135.06;5074595;28;20445;-69
2022/07/27 00:38:47;;;;;;;2.57;0.60;;;;;;;16.40;75.96;101136.84;5074515;28;20532;-69
2022/07/27 00:41:14;;;;;;;1.97;0.50;;;;;;;16.38;76.56;101135.56;5074492;28;20457;-70
2022/07/27 00:43:52;;;;;;;2.20;0.57;;;;;;;16.23;76.08;101136.88;5074300;28;20955;-69
2022/07/27 00:46:20;;;;;;;2.10;0.60;;;;;;;16.13;76.23;101137.25;5074458;28;20496;-70
2022/07/27 00:48:46;;;;;;;2.77;0.97;;;;;;;16.05;77.35;101149.00;5074532;28;20444;-70
2022/07/27 00:51:14;;;;;;;2.73;0.80;;;;;;;15.94;77.62;101145.81;5074445;28;20492;-69
2022/07/27 00:53:41;;;;;;;2.57;0.80;;;;;;;15.81;78.88;101150.31;5074258;28;20487;-70
2022/07/27 00:56:08;;;;;;;3.60;0.97;;;;;;;15.76;78.28;101153.22;5074261;28;20441;-71
2022/07/27 00:58:35;;;;;;;2.90;0.80;;;;;;;15.72;79.24;101151.44;5074323;28;20544;-70
2022/07/27 01:01:02;;;;;;;2.73;0.87;;;;;;;15.61;78.77;101146.25;5074114;28;20828;-70
2022/07/27 01:03:30;;;;;;;2.60;0.80;;;;;;;15.57;79.30;101147.22;5073763;28;20536;-71
2022/07/27 01:05:57;;;;;;;6.30;0.80;;;;;;;15.51;79.77;101151.22;5073826;28;20867;-70
2022/07/27 01:08:24;;;;;;;3.03;0.93;;;;;;;15.45;79.96;101153.31;5074047;28;20445;-69
2022/07/27 01:10:52;;;;;;;2.10;0.53;;;;;;;15.34;81.39;101161.00;5073630;28;20492;-70
2022/07/27 01:13:19;;;;;;;2.57;0.80;;;;;;;15.26;81.57;101159.06;5073862;28;20583;-71
2022/07/27 01:15:45;;;;;;;4.00;0.93;;;;;;;15.14;82.08;101156.97;5073649;28;20525;-71
2022/07/27 01:18:13;;;;;;;3.03;1.13;;;;;;;15.13;82.60;101154.53;5073867;28;20871;-71
2022/07/27 01:20:42;;;;;;;2.03;0.60;;;;;;;15.10;82.83;101157.91;5073189;28;20469;-69
2022/07/27 01:23:10;;;;;;;2.23;0.57;;;;;;;15.09;82.93;101161.75;5073491;28;20612;-70
2022/07/27 01:25:38;;;;;;;2.97;0.83;;;;;;;15.02;83.14;101161.44;5073400;28;20528;-69
2022/07/27 01:28:05;;;;;;;2.90;0.73;;;;;;;14.97;83.18;101156.13;5073764;28;20445;-69
2022/07/27 01:30:32;;;;;;;1.90;0.60;;;;;;;14.91;82.76;101152.72;5073598;28;20466;-69
2022/07/27 01:33:02;;;;;;;2.50;0.60;;;;;;;14.81;84.34;101150.28;5073375;28;20510;-70
2022/07/27 01:35:29;;;;;;;10.33;1.03;;;;;;;14.77;83.94;101161.00;5073579;28;20484;-69
2022/07/27 01:37:56;;;;;;;6.20;1.23;;;;;;;14.75;80.05;101155.06;5073565;28;20517;-69
2022/07/27 01:40:25;;;;;;;2.30;0.60;;;;;;;14.72;79.94;101160.34;5073435;28;20467;-69
2022/07/27 01:42:52;;;;;;;2.73;0.70;;;;;;;14.61;78.50;101157.91;5073580;28;20520;-69
2022/07/27 01:45:18;;;;;;;5.63;0.80;;;;;;;14.48;80.21;101163.44;5073492;28;20530;-70
2022/07/27 01:47:45;;;;;;;4.37;0.70;;;;;;;14.42;82.70;101165.47;5073401;28;20453;-69
2022/07/27 01:50:12;;;;;;;2.20;0.63;;;;;;;14.32;82.82;101171.97;5073293;28;20469;-69
2022/07/27 01:52:38;;;;;;;4.43;1.17;;;;;;;14.23;84.27;101162.94;5073139;28;20539;-69
2022/07/27 01:55:06;;;;;;;2.27;0.63;;;;;;;14.27;85.03;101161.22;5073322;28;20444;-69
2022/07/27 01:57:34;;;;;;;3.17;0.70;;;;;;;14.18;85.59;101170.47;5072980;28;20810;-69
2022/07/27 02:00:01;;;;;;;3.10;0.87;;;;;;;14.11;86.13;101160.78;5073268;28;20552;-70
2022/07/27 02:02:28;;;;;;;5.43;0.90;;;;;;;14.04;86.72;101170.53;5072960;28;20941;-70
2022/07/27 02:04:54;;;;;;;2.93;1.03;;;;;;;14.05;86.01;101163.97;5072959;28;20457;-74
2022/07/27 02:07:21;;;;;;;2.00;0.50;;;;;;;14.06;86.77;101162.84;5073263;28;20476;-71
2022/07/27 02:09:47;;;;;;;2.60;0.83;;;;;;;14.02;86.35;101156.41;5072993;28;20481;-71
2022/07/27 02:15:00;;;;;;;2.53;0.83;;;;;;;13.97;86.11;101151.88;5073118;28;20460;-69
2022/07/27 02:17:26;;;;;;;5.70;1.20;;;;;;;13.91;86.35;101152.31;5073153;28;20441;-69
2022/07/27 02:19:53;;;;;;;2.83;1.00;;;;;;;13.76;86.80;101154.28;5073114;28;20540;-69
2022/07/27 02:22:19;;;;;;;3.00;0.77;;;;;;;13.72;87.66;101152.47;5073114;28;20469;-69
2022/07/27 02:24:46;;;;;;;4.67;0.77;;;;;;;13.73;87.82;101154.91;5073013;28;20441;-69
2022/07/27 02:27:13;;;;;;;2.30;0.67;;;;;;;13.74;87.10;101156.53;5072769;28;20448;-70
2022/07/27 02:29:39;;;;;;;2.60;0.70;;;;;;;13.68;87.41;101157.75;5072873;28;20532;-69
2022/07/27 02:32:07;;;;;;;2.93;0.90;;;;;;;13.69;87.18;101166.72;5074566;28;20532;-69
2022/07/27 02:34:34;;;;;;;2.87;0.90;;;;;;;13.69;87.22;101169.44;5077023;28;20540;-68
2022/07/27 02:37:00;;;;;;;3.90;1.37;;;;;;;13.60;87.19;101166.66;5076628;28;20528;-68
2022/07/27 02:39:27;;;;;;;2.20;0.70;;;;;;;13.62;87.35;101165.22;5076564;28;20448;-70
2022/07/27 02:41:53;;;;;;;2.50;0.80;;;;;;;13.59;87.27;101171.28;5076589;28;20488;-68
2022/07/27 02:44:20;;;;;;;7.40;1.17;;;;;;;13.52;87.92;101172.81;5076517;28;21002;-68
2022/07/27 02:46:47;;;;;;;3.00;0.90;;;;;;;13.48;88.26;101169.91;5076793;28;20441;-69
2022/07/27 02:49:15;;;;;;;2.50;0.77;;;;;;;13.53;88.17;101169.78;5076729;28;20461;-70
2022/07/27 02:51:42;;;;;;;3.37;1.10;;;;;;;13.52;88.07;101170.09;5076259;28;20453;-68
2022/07/27 02:54:08;;;;;;;4.03;1.27;;;;;;;13.43;88.92;101175.47;5076187;28;20568;-69
2022/07/27 02:56:35;;;;;;;4.17;0.87;;;;;;;13.44;88.24;101174.34;5076636;28;21002;-70
2022/07/27 02:59:01;;;;;;;2.40;0.70;;;;;;;13.40;88.26;101167.91;5076606;28;20536;-69
2022/07/27 03:01:28;;;;;;;6.90;1.10;;;;;;;13.43;88.20;101167.28;5076133;28;20838;-69
2022/07/27 03:03:55;;;;;;;3.70;1.60;;;;;;;13.32;88.12;101166.69;5076479;28;20437;-69
2022/07/27 03:06:23;;;;;;;3.80;0.90;;;;;;;13.30;88.40;101168.94;5076406;28;20528;-68
2022/07/27 03:08:50;;;;;;;2.93;0.83;;;;;;;13.28;88.38;101164.88;5076443;28;20445;-68
2022/07/27 03:11:16;;;;;;;2.40;0.80;;;;;;;13.24;87.46;101159.28;5075761;28;20568;-68
2022/07/27 03:13:43;;;;;;;2.93;0.97;;;;;;;13.24;84.91;101163.91;5076100;28;20572;-69
2022/07/27 03:16:09;;;;;;;3.27;1.00;;;;;;;13.20;84.24;101171.03;5076191;28;20491;-69
2022/07/27 03:18:37;;;;;;;2.03;0.50;;;;;;;13.13;85.78;101160.56;5076130;28;20444;-70
2022/07/27 03:21:04;;;;;;;3.87;0.80;;;;;;;13.09;86.33;101164.97;5075732;28;20850;-69
2022/07/27 03:23:31;;;;;;;4.73;1.00;;;;;;;13.03;85.41;101177.09;5076217;28;20532;-71
2022/07/27 03:25:58;;;;;;;3.30;1.00;;;;;;;13.04;86.45;101173.25;5076097;28;20441;-70
2022/07/27 03:28:25;;;;;;;5.73;1.33;;;;;;;13.01;88.08;101171.94;5076056;28;20532;-70
2022/07/27 03:30:51;;;;;;;2.73;1.07;;;;;;;12.97;89.47;101170.94;5076196;28;20556;-71
2022/07/27 03:33:18;;;;;;;2.30;0.70;;;;;;;13.06;89.79;101171.84;5075937;28;20571;-71
2022/07/27 03:35:44;;;;;;;4.20;1.30;;;;;;;13.10;89.55;101182.91;5075941;28;20528;-71
2022/07/27 03:38:11;;;;;;;5.33;0.90;;;;;;;13.13;89.92;101180.38;5075937;28;20537;-71
2022/07/27 03:40:39;;;;;;;3.80;1.30;;;;;;;13.20;89.91;101185.44;5075490;28;20552;-70
2022/07/27 03:43:06;;;;;;;4.53;1.03;;;;;;;13.29;89.95;101188.28;5075335;28;20504;-70
2022/07/27 03:45:33;;;;;;;2.90;1.10;;;;;;;13.32;90.33;101193.91;5075637;28;20441;-69
2022/07/27 03:47:59;;;;;;;2.50;0.80;;;;;;;13.38;90.26;101189.97;5075586;28;20536;-69
2022/07/27 03:50:26;;;;;;;6.47;1.03;;;;;;;13.45;89.41;101186.03;5075448;28;20861;-68
2022/07/27 03:52:53;;;;;;;2.20;0.70;;;;;;;13.49;89.25;101184.31;5075055;28;21121;-69
2022/07/27 03:55:20;;;;;;;2.50;0.67;;;;;;;13.51;89.33;101191.06;5075490;28;20453;-69
2022/07/27 03:57:49;;;;;;;3.00;0.90;;;;;;;13.54;89.32;101190.44;5075419;28;20528;-68
2022/07/27 04:00:16;;;;;;;2.77;0.80;;;;;;;13.57;88.55;101187.13;5075381;28;20468;-70
2022/07/27 04:02:43;;;;;;;2.53;1.00;;;;;;;13.60;87.37;101185.72;5075062;28;20854;-69
2022/07/27 04:05:10;;;;;;;7.90;1.40;;;;;;;13.64;88.20;101183.97;5075107;28;20540;-70
2022/07/27 04:07:37;;;;;;;3.80;1.27;;;;;;;13.65;88.41;101182.06;5075064;28;20524;-70
2022/07/27 04:10:06;;;;;;;3.40;1.07;;;;;;;13.70;86.14;101188.19;5074963;28;20560;-70
2022/07/27 04:12:35;;;;;;;2.80;0.70;;;;;;;13.68;85.84;101195.03;5075130;28;20433;-70
2022/07/27 04:15:03;;;;;;;2.53;0.90;;;;;;;13.67;85.83;101194.25;5074825;28;20532;-70
2022/07/27 04:17:30;;;;;;;2.67;0.93;;;;;;;13.62;86.08;101192.44;5075082;28;20465;-70
2022/07/27 04:19:56;;;;;;;2.90;0.70;;;;;;;13.68;86.07;101190.44;5074957;28;20464;-71
2022/07/27 04:22:23;;;;;;;2.93;0.90;;;;;;;13.73;86.71;101193.03;5074748;28;20465;-69
2022/07/27 04:24:50;;;;;;;2.80;0.90;;;;;;;13.74;86.02;101188.38;5074599;28;20525;-69
2022/07/27 04:27:16;;;;;;;3.50;1.13;;;;;;;13.74;86.91;101188.38;5074930;28;20437;-70
2022/07/27 04:29:43;;;;;;;4.10;1.30;;;;;;;13.76;87.79;101184.22;5074848;28;20447;-71
2022/07/27 04:32:11;;;;;;;3.23;0.90;;;;;;;13.79;87.36;101185.53;5074692;28;20532;-71
2022/07/27 04:34:37;;;;;;;2.53;0.90;;;;;;;13.78;86.78;101190.19;5074704;28;20588;-69
2022/07/27 04:37:04;;;;;;;5.07;1.37;;;;;;;13.82;86.02;101184.94;5074618;28;20532;-69
2022/07/27 04:39:31;;;;;;;2.10;0.63;;;;;;;13.84;85.57;101188.94;5074214;28;20874;-70
2022/07/27 04:41:58;;;;;;;4.60;1.23;;;;;;;13.84;86.23;101194.41;5074419;28;20528;-68
2022/07/27 04:44:24;;;;;;;6.00;0.90;;;;;;;13.93;87.40;101180.03;5074495;28;20438;-68
2022/07/27 04:46:51;;;;;;;4.80;0.80;;;;;;;13.99;86.65;101184.25;5074508;28;20433;-68
2022/07/27 04:49:19;;;;;;;2.83;0.80;;;;;;;13.99;86.85;101192.41;5074117;28;20532;-69
2022/07/27 04:51:45;;;;;;;2.70;1.00;;;;;;;14.02;86.24;101180.91;5073765;28;21043;-69
2022/07/27 04:54:12;;;;;;;3.27;0.80;;;;;;;14.09;86.20;101181.28;5073046;28;21002;-70
2022/07/27 04:56:39;;;;;;;3.47;1.07;;;;;;;14.17;85.13;101188.72;5074333;28;20537;-69
2022/07/27 04:59:06;;;;;;;2.33;0.70;;;;;;;14.25;85.17;101193.41;5074183;28;20449;-69
2022/07/27 05:01:32;;;;;;;3.77;1.00;;;;;;;14.32;84.78;101188.34;5073861;28;20834;-68
2022/07/27 05:03:59;;;;;;;2.53;0.70;;;;;;;14.36;85.37;101189.31;5074283;28;20529;-68
2022/07/27 05:06:27;;;;;;;3.50;0.90;;;;;;;14.44;84.22;101197.88;5074207;28;20478;-68
2022/07/27 05:08:54;;;;;;;2.70;1.00;;;;;;;14.45;84.57;101200.28;5074174;28;20547;-68
2022/07/27 05:11:20;;;;;;;5.47;1.10;;;;;;;14.56;85.25;101182.56;5073547;28;20500;-69
2022/07/27 05:13:47;;;;;;;2.10;0.70;;;;;;;14.59;84.58;101197.50;5073832;28;20546;-69
2022/07/27 05:16:14;;;;;;;5.20;1.03;;;;;;;14.63;83.11;101203.94;5073944;28;20455;-70
2022/07/27 05:18:41;;;;;;;3.30;1.60;;;;;;;14.57;83.85;101195.09;5073874;28;20794;-68
2022/07/27 05:21:08;;;;;;;2.87;0.77;;;;;;;14.57;83.14;101194.28;5073479;28;20461;-69
2022/07/27 05:23:36;;;;;;;3.30;1.33;;;;;;;14.52;83.34;101203.41;5073857;28;20442;-68
2022/07/27 05:26:03;;;;;;;2.23;0.63;;;;;;;14.54;83.61;101203.09;5073866;28;20443;-70
2022/07/27 05:28:30;;;;;;;1.93;0.60;;;;;;;14.49;84.45;101195.84;5073710;28;20528;-75
2022/07/27 05:30:57;;;;;;;5.93;1.17;;;;;;;14.49;85.67;101200.50;5073664;28;20469;-72
2022/07/27 05:33:24;;;;;;;6.17;1.00;;;;;;;14.58;86.87;101204.88;5073549;28;20511;-73
2022/07/27 05:35:51;;;;;;;2.17;0.60;;;;;;;14.63;86.07;101210.19;5073436;28;20958;-73
2022/07/27 05:38:18;;;;;;;4.87;0.90;;;;;;;14.74;85.49;101207.19;5073680;28;20473;-73
2022/07/27 05:40:46;;;;;;;2.57;0.70;;;;;;;14.73;84.45;101220.03;5073189;28;20472;-72
2022/07/27 05:43:13;;;;;;;2.20;0.70;;;;;;;14.83;84.12;101214.31;5073173;28;20454;-73
2022/07/27 05:45:40;;;;;;;2.47;0.53;;;;;;;14.92;84.00;101213.53;5073644;28;20548;-73
2022/07/27 05:48:06;;;;;;;2.50;0.80;;;;;;;14.95;84.02;101216.44;5073581;28;20445;-74
2022/07/27 05:50:33;;;;;;;2.43;0.80;;;;;;;15.02;83.22;101226.91;5073411;28;20543;-73
2022/07/27 05:53:00;;;;;;;2.60;0.60;;;;;;;15.13;82.71;101230.94;5073383;28;20459;-74
2022/07/27 05:55:26;;;;;;;2.57;0.87;;;;;;;15.24;82.55;101235.00;5073339;28;20445;-72
2022/07/27 05:57:54;;;;;;;2.50;0.83;;;;;;;15.29;82.48;101245.78;5073089;28;20512;-71
2022/07/27 06:00:21;;;;;;;4.83;0.60;;;;;;;15.39;82.70;101247.41;5073137;28;20465;-72
2022/07/27 06:02:48;;;;;;;2.47;0.67;;;;;;;15.52;82.13;101241.00;5073456;28;20449;-71
2022/07/27 06:05:14;;;;;;;3.00;0.70;;;;;;;15.61;82.12;101244.56;5073171;28;20516;-73
2022/07/27 06:07:58;;;;;;;4.57;1.50;;;;;;;15.69;80.62;101245.75;5072949;28;20482;-70
2022/07/27 06:10:25;;;;;;;2.50;0.60;;;;;;;15.67;80.40;101247.16;5072932;28;20993;-70
2022/07/27 06:12:51;;;;;;;2.97;0.83;;;;;;;15.79;80.77;101248.16;5095166;22;20492;-74
2022/07/27 06:15:19;;;;;;;3.80;1.03;;;;;;;15.83;80.23;101243.66;5073078;28;20576;-72
2022/07/27 06:17:48;;;;;;;4.27;0.80;;;;;;;15.88;82.89;101243.50;5073074;28;20442;-72
2022/07/27 06:20:15;;;;;;;4.63;0.93;;;;;;;16.00;80.47;101244.81;5073145;28;20472;-71
2022/07/27 06:22:45;;;;;;;3.70;1.00;;;;;;;16.05;79.08;101239.16;5072729;28;20457;-72
2022/07/27 06:25:12;;;;;;;1.87;0.50;;;;;;;16.05;78.56;101239.97;5072679;28;20811;-69
2022/07/27 06:27:38;;;;;;;2.07;0.60;;;;;;;16.15;78.58;101238.84;5073015;28;20527;-72
2022/07/27 06:30:06;;;;;;;4.70;1.00;;;;;;;16.20;79.48;101237.88;5073061;28;20437;-72
2022/07/27 06:32:34;;;;;;;2.30;0.80;;;;;;;16.23;78.05;101243.50;5072640;28;20544;-72
2022/07/27 06:35:01;;;;;;;5.17;1.10;;;;;;;16.32;78.81;101240.75;5072887;28;20480;-72
2022/07/27 06:37:30;;;;;;;2.00;0.60;;;;;;;16.43;77.23;101241.25;5072880;28;20796;-72
2022/07/27 06:39:56;;;;;;;2.40;0.70;;;;;;;16.57;75.52;101250.84;5072835;28;20453;-72
2022/07/27 06:42:23;;;;;;;2.60;1.00;;;;;;;16.67;73.92;101240.69;5072747;28;20548;-72
2022/07/27 06:44:49;;;;;;;2.30;0.80;;;;;;;16.79;74.81;101244.41;5073317;28;20445;-71
2022/07/27 06:47:16;;;;;;;4.00;0.73;;;;;;;16.83;72.06;101236.34;5072821;28;20510;-71
2022/07/27 06:49:45;;;;;;;2.60;0.90;;;;;;;16.93;71.44;101229.69;5072834;28;20442;-71
2022/07/27 06:52:12;;;;;;;2.20;0.60;;;;;;;17.04;71.62;101239.13;5072650;28;20497;-71
2022/07/27 06:54:39;;;;;;;6.63;1.17;;;;;;;17.04;71.47;101241.88;5072648;28;20492;-71
2022/07/27 06:57:06;;;;;;;1.90;0.50;;;;;;;17.09;71.39;101244.47;5072969;28;20456;-71
2022/07/27 06:59:33;;;;;;;3.60;0.60;;;;;;;17.12;68.36;101254.72;5072777;28;20527;-71
2022/07/27 07:02:00;;;;;;;5.90;0.90;;;;;;;17.15;68.53;101251.34;5072616;28;20505;-71
2022/07/27 07:04:27;;;;;;;8.17;1.17;;;;;;;17.11;69.24;101255.88;5072430;28;20532;-71
2022/07/27 07:06:59;;;;;;;5.00;0.80;;;;;;;17.04;68.18;101255.56;5072650;28;20816;-71
2022/07/27 07:09:26;;;;;;;2.40;0.50;;;;;;;17.02;70.70;101253.16;5072346;28;20922;-72
2022/07/27 07:11:52;;;;;;;3.00;0.63;;;;;;;17.01;68.52;101256.25;5072433;28;20520;-72
2022/07/27 07:14:19;;;;;;;6.10;0.83;;;;;;;16.97;68.25;101253.34;5072508;28;20840;-72
2022/07/27 07:16:46;;;;;;;2.27;0.50;;;;;;;17.04;67.32;101252.81;5072578;28;20451;-72
2022/07/27 07:19:12;;;;;;;2.30;0.67;;;;;;;17.12;68.10;101252.00;5075719;28;20451;-72
2022/07/27 07:21:39;;;;;;;1.87;0.43;;;;;;;17.20;67.89;101248.41;5076127;28;20449;-72
2022/07/27 07:24:07;;;;;;;6.33;0.87;;;;;;;17.31;66.97;101255.13;5076026;28;20457;-72
2022/07/27 07:26:35;;;;;;;2.03;0.60;;;;;;;17.43;66.28;101251.69;5075800;28;20528;-72
2022/07/27 07:29:02;;;;;;;2.00;0.50;;;;;;;17.51;65.91;101255.50;5076008;28;20445;-72
2022/07/27 07:31:28;;;;;;;2.83;0.67;;;;;;;17.61;67.36;101247.69;5075631;28;20439;-72
2022/07/27 07:33:55;;;;;;;2.43;0.40;;;;;;;17.71;65.71;101254.75;5075836;28;20613;-72
2022/07/27 07:36:21;;;;;;;4.67;1.03;;;;;;;17.75;64.21;101252.97;5075566;28;20437;-72
2022/07/27 07:38:48;;;;;;;1.80;0.40;;;;;;;17.89;64.77;101263.69;5075874;28;20449;-72
2022/07/27 07:41:16;;;;;;;3.47;0.90;;;;;;;17.95;63.64;101267.81;5075764;28;20502;-72
2022/07/27 07:43:43;;;;;;;2.10;0.50;;;;;;;17.85;60.26;101265.47;5075702;28;20576;-71
2022/07/27 07:46:09;;;;;;;4.57;0.60;;;;;;;17.70;62.13;101261.34;5075627;28;20524;-71
2022/07/27 07:48:38;;;;;;;2.10;0.60;;;;;;;17.76;61.07;101265.53;5075329;28;20913;-71
2022/07/27 07:51:04;;;;;;;2.30;0.60;;;;;;;17.77;62.52;101260.84;5075232;28;21018;-71
2022/07/27 07:53:31;;;;;;;4.13;0.73;;;;;;;17.85;62.63;101263.53;5075499;28;20479;-71
2022/07/27 07:55:58;;;;;;;1.90;0.50;;;;;;;17.89;62.05;101269.16;5075235;28;20973;-71
2022/07/27 07:58:27;;;;;;;2.63;0.60;;;;;;;17.95;62.50;101277.97;5075445;28;20833;-72
2022/07/27 08:00:53;;;;;;;2.30;0.47;;;;;;;17.92;62.98;101270.41;5075150;28;20450;-71
2022/07/27 08:03:20;;;;;;;2.10;0.60;;;;;;;17.87;61.22;101272.22;5075309;28;20457;-71
2022/07/27 08:05:47;;;;;;;2.40;0.50;;;;;;;17.93;61.20;101270.09;5075357;28;20520;-71
2022/07/27 08:08:14;;;;;;;2.30;0.77;;;;;;;17.90;61.92;101270.75;5075270;28;20441;-71
2022/07/27 08:10:40;;;;;;;1.87;0.50;;;;;;;17.88;61.72;101267.53;5075247;28;20536;-71
2022/07/27 08:13:07;;;;;;;2.97;0.80;;;;;;;17.93;62.20;101269.28;5074795;28;20556;-72
2022/07/27 08:15:35;;;;;;;4.17;0.60;;;;;;;17.96;63.92;101274.91;5075058;28;20563;-72
2022/07/27 08:18:02;;;;;;;2.07;0.50;;;;;;;18.02;62.96;101278.25;5075042;28;20528;-71
2022/07/27 08:20:29;;;;;;;2.10;0.50;;;;;;;18.02;61.95;101272.78;5074665;28;20823;-70
2022/07/27 08:22:55;;;;;;;8.10;0.70;;;;;;;18.14;61.06;101272.81;5074922;28;20547;-72
2022/07/27 08:25:22;;;;;;;4.13;0.70;;;;;;;18.17;62.05;101272.16;5074953;28;20877;-72
2022/07/27 08:27:48;;;;;;;2.27;0.50;;;;;;;18.08;62.65;101279.66;5074500;28;20961;-72
2022/07/27 08:30:15;;;;;;;2.83;0.60;;;;;;;18.17;63.73;101274.91;5074867;28;20513;-71
2022/07/27 08:32:51;;;;;;;2.20;0.57;;;;;;;18.11;62.26;101282.53;5074694;28;20552;-72
2022/07/27 08:35:18;;;;;;;4.00;0.53;;;;;;;18.16;60.50;101284.28;5074681;28;20559;-72
2022/07/27 08:37:45;;;;;;;2.20;0.60;;;;;;;18.15;60.08;101282.66;5074366;28;20448;-71
2022/07/27 08:40:13;;;;;;;2.20;0.50;;;;;;;18.07;60.88;101280.78;5074699;28;20456;-72
2022/07/27 08:42:42;;;;;;;2.43;0.70;;;;;;;18.09;61.06;101273.03;5074170;28;20461;-72
2022/07/27 08:45:11;;;;;;;5.60;1.40;;;;;;;18.06;62.46;101285.47;5074177;28;20943;-71
2022/07/27 08:47:39;;;;;;;2.40;0.77;;;;;;;18.18;60.37;101283.94;5074529;28;20532;-71
2022/07/27 08:50:22;;;;;;;2.00;0.60;;;;;;;18.20;62.26;101287.94;5074126;28;20536;-72
2022/07/27 08:52:54;;;;;;;2.37;0.67;;;;;;;18.41;62.17;101282.41;5074080;28;20564;-72
2022/07/27 08:55:22;;;;;;;2.20;0.63;;;;;;;18.56;59.65;101291.97;5074019;28;20974;-71
2022/07/27 08:57:48;;;;;;;1.90;0.50;;;;;;;18.72;58.50;101287.47;5073935;28;21018;-71
2022/07/27 09:00:16;;;;;;;4.43;0.77;;;;;;;18.68;57.32;101294.75;5074252;28;20445;-71
2022/07/27 09:02:44;;;;;;;2.30;0.60;;;;;;;18.72;57.89;101287.47;5074173;28;20556;-71
2022/07/27 09:05:12;;;;;;;1.90;0.50;;;;;;;18.75;56.90;101284.06;5073789;28;20949;-71
2022/07/27 09:07:38;;;;;;;4.10;0.50;;;;;;;18.91;57.74;101292.47;5073778;28;20444;-71
2022/07/27 09:10:06;;;;;;;2.83;0.77;;;;;;;18.99;57.62;101302.53;5074029;28;20539;-71
2022/07/27 09:12:33;;;;;;;1.90;0.50;;;;;;;18.94;55.69;101294.50;5073730;28;20572;-71
2022/07/27 09:15:06;;;;;;;4.37;0.70;;;;;;;18.86;57.36;101304.47;5073543;28;21024;-71
2022/07/27 09:17:33;;;;;;;1.80;0.40;;;;;;;18.74;57.80;101292.63;5073892;28;20533;-71
2022/07/27 09:20:01;;;;;;;2.77;0.90;;;;;;;18.61;56.08;101300.00;5073865;28;20528;-71
2022/07/27 09:22:49;;;;;;;3.70;0.60;;;;;;;18.76;57.71;101302.13;5073715;28;20518;-71
2022/07/27 09:25:19;;;;;;;2.10;0.63;;;;;;;18.85;55.93;101302.84;5073737;28;20433;-71
2022/07/27 09:27:47;;;;;;;2.20;0.60;;;;;;;18.82;55.43;101295.28;5073629;28;20441;-71
2022/07/27 09:30:15;;;;;;;5.20;0.80;;;;;;;18.84;55.07;101294.94;5073658;28;20457;-71
2022/07/27 09:32:53;;;;;;;2.00;0.60;;;;;;;18.88;54.96;101309.59;5073681;28;20540;-71
2022/07/27 09:35:23;;;;;;;5.77;0.63;;;;;;;18.99;54.16;101288.00;5073622;28;20994;-71
2022/07/27 09:37:51;;;;;;;2.40;0.80;;;;;;;19.14;53.68;101290.09;5073420;28;20520;-71
2022/07/27 09:40:20;;;;;;;2.37;0.70;;;;;;;19.24;53.61;101286.88;5073146;28;20448;-71
2022/07/27 09:42:47;;;;;;;1.90;0.50;;;;;;;19.46;53.92;101290.31;5073496;28;20461;-71
2022/07/27 09:45:32;;;;;;;2.47;0.87;;;;;;;19.48;52.04;101293.50;5073493;28;20536;-71
2022/07/27 09:48:12;;;;;;;2.73;0.60;;;;;;;19.46;52.63;101293.88;5073514;28;20524;-71
2022/07/27 09:50:41;;;;;;;1.90;0.50;;;;;;;19.41;54.19;101286.66;5073204;28;20529;-71
2022/07/27 09:53:20;;;;;;;3.50;0.60;;;;;;;19.47;52.77;101295.47;5073011;28;20911;-71
2022/07/27 09:55:57;;;;;;;1.90;0.40;;;;;;;19.55;52.52;101296.50;5073680;28;20487;-71
2022/07/27 09:58:38;;;;;;;3.40;0.60;;;;;;;19.57;53.06;101303.28;5073490;28;20432;-71
2022/07/27 10:01:06;;;;;;;2.73;0.67;;;;;;;19.76;53.96;101294.47;5073190;28;20520;-71
2022/07/27 10:03:34;;;;;;;2.50;0.93;;;;;;;19.87;53.27;101297.53;5072973;28;20544;-71
2022/07/27 10:06:02;;;;;;;2.10;0.50;;;;;;;20.00;51.60;101301.84;5073281;28;20525;-71
2022/07/27 10:08:30;;;;;;;4.20;0.80;;;;;;;20.00;52.38;101282.59;5073242;28;20449;-71
2022/07/27 10:10:57;;;;;;;2.17;0.80;;;;;;;19.95;52.85;101293.03;5073332;28;20534;-71
2022/07/27 10:13:24;;;;;;;1.80;0.50;;;;;;;20.08;53.08;101291.88;5072661;28;21074;-71
2022/07/27 10:15:51;;;;;;;2.27;0.50;;;;;;;20.09;52.70;101287.97;5073157;28;20575;-71
2022/07/27 10:18:24;;;;;;;1.83;0.43;;;;;;;20.10;53.16;101279.38;5073186;28;20520;-71
2022/07/27 10:20:51;;;;;;;2.00;0.53;;;;;;;19.94;52.66;101280.44;5073205;28;20418;-71
2022/07/27 10:23:27;;;;;;;2.67;0.67;;;;;;;19.92;53.75;101280.78;5072965;28;20472;-71
2022/07/27 10:26:15;;;;;;;3.87;0.63;;;;;;;20.16;53.06;101279.94;5073048;28;20529;-71
2022/07/27 10:28:52;;;;;;;1.90;0.50;;;;;;;20.48;51.69;101274.56;5073057;28;20464;-71
2022/07/27 10:31:21;;;;;;;3.13;0.80;;;;;;;20.58;51.12;101285.84;5072784;28;20505;-71
2022/07/27 10:33:49;;;;;;;2.33;0.53;;;;;;;20.67;51.49;101274.66;5072688;28;20982;-71
2022/07/27 10:36:19;;;;;;;1.90;0.50;;;;;;;20.53;51.08;101279.78;5072938;28;20560;-72
2022/07/27 10:38:48;;;;;;;2.10;0.57;;;;;;;20.54;51.60;101278.63;5073083;28;20441;-73
2022/07/27 10:41:24;;;;;;;6.53;0.73;;;;;;;20.44;51.10;101276.38;5072679;28;20526;-70
2022/07/27 10:44:11;;;;;;;3.97;0.77;;;;;;;20.39;52.75;101285.69;5073295;28;20530;-69
2022/07/27 10:46:38;;;;;;;2.40;0.50;;;;;;;20.31;51.54;101281.91;5072559;28;20477;-70
2022/07/27 10:49:17;;;;;;;3.40;0.70;;;;;;;20.24;50.84;101286.44;5072584;28;21006;-70
2022/07/27 10:51:45;;;;;;;1.93;0.47;;;;;;;20.21;51.26;101282.44;5072606;28;20429;-69
2022/07/27 10:54:20;;;;;;;3.00;0.77;;;;;;;20.29;52.40;101280.69;5076146;28;20441;-70
2022/07/27 10:56:50;;;;;;;2.00;0.50;;;;;;;20.38;51.84;101276.63;5076286;28;20974;-69
2022/07/27 10:59:48;;;;;;;2.07;0.60;;;;;;;20.25;50.26;101271.53;5076718;28;20461;-70
2022/07/27 11:02:17;;;;;;;2.77;0.67;;;;;;;20.51;50.11;101271.91;5076515;28;20548;-69
2022/07/27 11:04:46;;;;;;;1.80;0.43;;;;;;;20.76;49.07;101272.59;5076551;28;20441;-70
2022/07/27 11:07:16;;;;;;;4.53;0.70;;;;;;;21.03;49.35;101270.09;5076396;28;20492;-69
2022/07/27 11:09:43;;;;;;;2.87;0.60;;;;;;;20.97;48.04;101277.03;5076121;28;20516;-70
2022/07/27 11:12:12;;;;;;;2.73;0.70;;;;;;;21.02;48.60;101271.25;5075790;28;21081;-69
2022/07/27 11:14:47;;;;;;;3.10;0.70;;;;;;;21.09;48.40;101274.19;5075916;28;20433;-69
2022/07/27 11:17:14;;;;;;;2.10;0.53;;;;;;;21.03;47.89;101273.66;5076469;28;20464;-69
2022/07/27 11:19:41;;;;;;;2.53;0.60;;;;;;;20.98;49.10;101271.16;5076167;28;20815;-69
2022/07/27 11:22:08;;;;;;;1.80;0.50;;;;;;;20.97;48.48;101268.75;5075785;28;20893;-69
2022/07/27 11:24:35;;;;;;;5.50;0.60;;;;;;;21.26;49.21;101270.28;5075789;28;20896;-69
2022/07/27 11:27:03;;;;;;;2.10;0.80;;;;;;;21.46;46.92;101273.91;5075682;28;20793;-69
2022/07/27 11:29:35;;;;;;;2.40;0.80;;;;;;;21.56;49.20;101273.34;5075692;28;20820;-69
2022/07/27 11:32:03;;;;;;;3.93;0.73;;;;;;;21.33;46.75;101265.75;5076004;28;20453;-69